sensor_id;sensor_type;location;lat;lon;timestamp;pressure;altitude;pressure_sealevel;temperature;humidity
11808;BME280;5961;42.640;23.380;2023-04-19T00:01:27;93652.81;;;11.92;88.27
11808;BME280;5961;42.640;23.380;2023-04-19T00:03:54;93645.16;;;11.91;88.46
11808;BME280;5961;42.640;23.380;2023-04-19T00:06:21;93646.78;;;11.95;88.65
11808;BME280;5961;42.640;23.380;2023-04-19T00:08:48;93627.56;;;11.86;88.62
11808;BME280;5961;42.640;23.380;2023-04-19T00:11:15;93638.44;;;11.97;88.08
11808;BME280;5961;42.640;23.380;2023-04-19T00:13:42;93629.06;;;11.84;88.41
11808;BME280;5961;42.640;23.380;2023-04-19T00:16:10;93634.94;;;11.93;88.63
11808;BME280;5961;42.640;23.380;2023-04-19T00:18:36;93636.06;;;11.92;88.39
11808;BME280;5961;42.640;23.380;2023-04-19T00:21:04;93643.28;;;11.91;88.75
11808;BME280;5961;42.640;23.380;2023-04-19T00:23:31;93636.53;;;11.97;88.90
11808;BME280;5961;42.640;23.380;2023-04-19T00:25:58;93637.59;;;11.93;88.52
11808;BME280;5961;42.640;23.380;2023-04-19T00:28:24;93632.13;;;11.86;89.03
11808;BME280;5961;42.640;23.380;2023-04-19T00:30:51;93629.19;;;11.91;88.70
11808;BME280;5961;42.640;23.380;2023-04-19T00:33:19;93622.19;;;11.83;88.97
11808;BME280;5961;42.640;23.380;2023-04-19T00:35:46;93626.09;;;11.89;88.87
11808;BME280;5961;42.640;23.380;2023-04-19T00:38:13;93625.41;;;11.92;88.65
11808;BME280;5961;42.640;23.380;2023-04-19T00:40:39;93627.38;;;11.95;88.84
11808;BME280;5961;42.640;23.380;2023-04-19T00:43:06;93630.03;;;11.95;88.54
11808;BME280;5961;42.640;23.380;2023-04-19T00:45:34;93625.31;;;11.88;88.72
11808;BME280;5961;42.640;23.380;2023-04-19T00:48:01;93623.53;;;11.92;88.54
11808;BME280;5961;42.640;23.380;2023-04-19T00:50:29;93614.34;;;11.90;88.60
11808;BME280;5961;42.640;23.380;2023-04-19T00:52:56;93630.81;;;11.95;88.51
11808;BME280;5961;42.640;23.380;2023-04-19T00:55:23;93615.44;;;11.89;88.11
11808;BME280;5961;42.640;23.380;2023-04-19T00:57:50;93617.81;;;11.94;88.31
11808;BME280;5961;42.640;23.380;2023-04-19T01:00:17;93569.09;;;11.55;88.62
11808;BME280;5961;42.640;23.380;2023-04-19T01:02:44;93621.06;;;11.84;88.36
11808;BME280;5961;42.640;23.380;2023-04-19T01:05:11;93610.34;;;11.80;88.35
11808;BME280;5961;42.640;23.380;2023-04-19T01:07:39;93609.16;;;11.78;88.44
11808;BME280;5961;42.640;23.380;2023-04-19T01:10:06;93613.78;;;11.81;88.78
11808;BME280;5961;42.640;23.380;2023-04-19T01:12:33;93589.47;;;11.67;88.40
11808;BME280;5961;42.640;23.380;2023-04-19T01:15:00;93606.13;;;11.79;88.31
11808;BME280;5961;42.640;23.380;2023-04-19T01:17:28;93612.63;;;11.82;88.33
11808;BME280;5961;42.640;23.380;2023-04-19T01:20:00;93607.59;;;11.77;88.56
11808;BME280;5961;42.640;23.380;2023-04-19T01:22:29;93611.31;;;11.72;88.36
11808;BME280;5961;42.640;23.380;2023-04-19T01:24:56;93612.16;;;11.76;88.86
11808;BME280;5961;42.640;23.380;2023-04-19T01:27:23;93611.13;;;11.81;88.80
11808;BME280;5961;42.640;23.380;2023-04-19T01:29:49;93576.75;;;11.56;88.08
11808;BME280;5961;42.640;23.380;2023-04-19T01:32:16;93610.75;;;11.82;88.24
11808;BME280;5961;42.640;23.380;2023-04-19T01:34:43;93612.31;;;11.83;87.98
11808;BME280;5961;42.640;23.380;2023-04-19T01:37:09;93599.28;;;11.78;88.15
11808;BME280;5961;42.640;23.380;2023-04-19T01:39:37;93605.34;;;11.79;88.43
11808;BME280;5961;42.640;23.380;2023-04-19T01:42:04;93604.94;;;11.77;88.13
11808;BME280;5961;42.640;23.380;2023-04-19T01:44:31;93599.91;;;11.72;88.31
11808;BME280;5961;42.640;23.380;2023-04-19T01:46:59;93606.66;;;11.69;88.66
11808;BME280;5961;42.640;23.380;2023-04-19T01:49:25;93597.47;;;11.67;88.46
11808;BME280;5961;42.640;23.380;2023-04-19T01:51:52;93597.41;;;11.63;88.48
11808;BME280;5961;42.640;23.380;2023-04-19T01:54:19;93590.47;;;11.58;88.99
11808;BME280;5961;42.640;23.380;2023-04-19T01:56:47;93589.59;;;11.35;89.82
11808;BME280;5961;42.640;23.380;2023-04-19T01:59:13;93595.50;;;11.44;89.76
11808;BME280;5961;42.640;23.380;2023-04-19T02:01:40;93596.97;;;11.42;90.40
11808;BME280;5961;42.640;23.380;2023-04-19T02:04:08;93590.63;;;11.31;91.08
11808;BME280;5961;42.640;23.380;2023-04-19T02:06:35;93579.97;;;11.31;91.28
11808;BME280;5961;42.640;23.380;2023-04-19T02:09:02;93597.13;;;11.33;91.43
11808;BME280;5961;42.640;23.380;2023-04-19T02:11:28;93582.72;;;11.34;91.80
11808;BME280;5961;42.640;23.380;2023-04-19T02:13:56;93586.75;;;11.28;92.22
11808;BME280;5961;42.640;23.380;2023-04-19T02:16:23;93587.03;;;11.23;92.60
11808;BME280;5961;42.640;23.380;2023-04-19T02:18:49;93587.28;;;11.18;93.01
11808;BME280;5961;42.640;23.380;2023-04-19T02:21:16;93580.69;;;11.12;93.76
11808;BME280;5961;42.640;23.380;2023-04-19T02:23:43;93595.22;;;10.99;94.42
11808;BME280;5961;42.640;23.380;2023-04-19T02:26:10;93584.22;;;10.85;95.19
11808;BME280;5961;42.640;23.380;2023-04-19T02:28:37;93576.19;;;10.81;96.13
11808;BME280;5961;42.640;23.380;2023-04-19T02:31:05;93594.81;;;10.81;96.10
11808;BME280;5961;42.640;23.380;2023-04-19T02:33:32;93585.88;;;10.74;96.79
11808;BME280;5961;42.640;23.380;2023-04-19T02:35:59;93583.22;;;10.74;96.90
11808;BME280;5961;42.640;23.380;2023-04-19T02:38:26;93583.22;;;10.74;96.71
11808;BME280;5961;42.640;23.380;2023-04-19T02:40:52;93590.91;;;10.79;96.57
11808;BME280;5961;42.640;23.380;2023-04-19T02:43:19;93582.44;;;10.73;96.94
11808;BME280;5961;42.640;23.380;2023-04-19T02:45:46;93581.66;;;10.73;96.68
11808;BME280;5961;42.640;23.380;2023-04-19T02:48:14;93584.78;;;10.75;96.58
11808;BME280;5961;42.640;23.380;2023-04-19T02:50:40;93585.56;;;10.75;97.00
11808;BME280;5961;42.640;23.380;2023-04-19T02:53:07;93583.31;;;10.77;97.13
11808;BME280;5961;42.640;23.380;2023-04-19T02:55:34;93588.63;;;10.77;96.80
11808;BME280;5961;42.640;23.380;2023-04-19T02:58:00;93578.69;;;10.74;96.74
11808;BME280;5961;42.640;23.380;2023-04-19T03:00:27;93583.03;;;10.82;96.95
11808;BME280;5961;42.640;23.380;2023-04-19T03:02:54;93584.09;;;10.78;96.47
11808;BME280;5961;42.640;23.380;2023-04-19T03:05:22;93581.84;;;10.80;96.48
11808;BME280;5961;42.640;23.380;2023-04-19T03:07:49;93593.16;;;10.77;96.43
11808;BME280;5961;42.640;23.380;2023-04-19T03:10:16;93577.91;;;10.74;96.27
11808;BME280;5961;42.640;23.380;2023-04-19T03:12:42;93581.06;;;10.64;96.26
11808;BME280;5961;42.640;23.380;2023-04-19T03:15:10;93592.81;;;10.63;96.41
11808;BME280;5961;42.640;23.380;2023-04-19T03:17:36;93578.16;;;10.53;96.89
11808;BME280;5961;42.640;23.380;2023-04-19T03:20:03;93574.53;;;10.45;96.59
11808;BME280;5961;42.640;23.380;2023-04-19T03:22:35;93577.97;;;10.46;96.78
11808;BME280;5961;42.640;23.380;2023-04-19T03:25:02;93582.34;;;10.38;97.83
11808;BME280;5961;42.640;23.380;2023-04-19T03:27:29;93577.81;;;10.39;97.69
11808;BME280;5961;42.640;23.380;2023-04-19T03:29:56;93572.66;;;10.30;97.83
11808;BME280;5961;42.640;23.380;2023-04-19T03:32:22;93575.75;;;10.32;98.19
11808;BME280;5961;42.640;23.380;2023-04-19T03:34:49;93584.56;;;10.36;98.09
11808;BME280;5961;42.640;23.380;2023-04-19T03:37:16;93580.44;;;10.23;98.58
11808;BME280;5961;42.640;23.380;2023-04-19T03:39:44;93569.22;;;10.14;99.16
11808;BME280;5961;42.640;23.380;2023-04-19T03:42:10;93582.00;;;10.24;99.00
11808;BME280;5961;42.640;23.380;2023-04-19T03:44:37;93570.41;;;10.17;99.02
11808;BME280;5961;42.640;23.380;2023-04-19T03:47:04;93566.56;;;10.14;99.03
11808;BME280;5961;42.640;23.380;2023-04-19T03:49:30;93575.81;;;10.20;98.80
11808;BME280;5961;42.640;23.380;2023-04-19T03:51:57;93568.53;;;10.17;98.84
11808;BME280;5961;42.640;23.380;2023-04-19T03:54:24;93571.28;;;10.21;98.87
11808;BME280;5961;42.640;23.380;2023-04-19T03:56:52;93566.06;;;10.24;98.25
11808;BME280;5961;42.640;23.380;2023-04-19T03:59:18;93577.00;;;10.23;98.10
11808;BME280;5961;42.640;23.380;2023-04-19T04:01:45;93482.94;;;9.65;97.87
11808;BME280;5961;42.640;23.380;2023-04-19T04:04:12;93573.94;;;10.21;98.02
11808;BME280;5961;42.640;23.380;2023-04-19T04:06:38;93580.44;;;10.23;98.09
11808;BME280;5961;42.640;23.380;2023-04-19T04:09:05;93578.31;;;10.29;97.95
11808;BME280;5961;42.640;23.380;2023-04-19T04:11:32;93582.16;;;10.31;98.15
11808;BME280;5961;42.640;23.380;2023-04-19T04:14:00;93579.97;;;10.33;97.93
11808;BME280;5961;42.640;23.380;2023-04-19T04:16:26;93590.47;;;10.30;97.66
11808;BME280;5961;42.640;23.380;2023-04-19T04:18:53;93580.63;;;10.30;97.50
11808;BME280;5961;42.640;23.380;2023-04-19T04:21:20;93586.00;;;10.34;97.55
11808;BME280;5961;42.640;23.380;2023-04-19T04:23:48;93585.16;;;10.30;97.54
11808;BME280;5961;42.640;23.380;2023-04-19T04:26:17;93584.66;;;10.24;98.01
11808;BME280;5961;42.640;23.380;2023-04-19T04:28:44;93599.56;;;10.29;97.95
11808;BME280;5961;42.640;23.380;2023-04-19T04:31:12;93587.47;;;10.31;97.68
11808;BME280;5961;42.640;23.380;2023-04-19T04:33:42;93579.97;;;10.33;97.85
11808;BME280;5961;42.640;23.380;2023-04-19T04:36:10;93589.81;;;10.33;97.74
11808;BME280;5961;42.640;23.380;2023-04-19T04:38:37;93583.03;;;10.35;97.98
11808;BME280;5961;42.640;23.380;2023-04-19T04:41:05;93601.78;;;10.42;97.49
11808;BME280;5961;42.640;23.380;2023-04-19T04:43:33;93535.88;;;9.89;96.91
11808;BME280;5961;42.640;23.380;2023-04-19T04:45:59;93591.69;;;10.32;96.93
11808;BME280;5961;42.640;23.380;2023-04-19T04:48:27;93582.31;;;9.95;97.83
11808;BME280;5961;42.640;23.380;2023-04-19T04:50:55;93596.84;;;10.13;98.21
11808;BME280;5961;42.640;23.380;2023-04-19T04:53:24;93595.22;;;10.09;98.01
11808;BME280;5961;42.640;23.380;2023-04-19T04:55:51;93602.41;;;10.08;98.27
11808;BME280;5961;42.640;23.380;2023-04-19T04:58:18;93584.13;;;9.91;98.71
11808;BME280;5961;42.640;23.380;2023-04-19T05:00:45;93595.09;;;10.05;99.16
11808;BME280;5961;42.640;23.380;2023-04-19T05:03:13;93582.13;;;9.88;98.90
11808;BME280;5961;42.640;23.380;2023-04-19T05:05:41;93605.97;;;10.00;98.94
11808;BME280;5961;42.640;23.380;2023-04-19T05:08:08;93597.25;;;10.00;99.03
11808;BME280;5961;42.640;23.380;2023-04-19T05:10:34;93604.47;;;9.87;99.53
11808;BME280;5961;42.640;23.380;2023-04-19T05:13:01;93604.56;;;9.90;99.94
11808;BME280;5961;42.640;23.380;2023-04-19T05:15:28;93593.50;;;9.88;100.00
11808;BME280;5961;42.640;23.380;2023-04-19T05:17:55;93599.25;;;9.90;99.55
11808;BME280;5961;42.640;23.380;2023-04-19T05:20:21;93589.44;;;9.91;99.43
11808;BME280;5961;42.640;23.380;2023-04-19T05:22:49;93624.78;;;9.95;99.87
11808;BME280;5961;42.640;23.380;2023-04-19T05:25:16;93601.38;;;9.85;99.86
11808;BME280;5961;42.640;23.380;2023-04-19T05:27:43;93580.38;;;9.80;99.74
11808;BME280;5961;42.640;23.380;2023-04-19T05:30:10;93597.38;;;9.91;100.00
11808;BME280;5961;42.640;23.380;2023-04-19T05:32:36;93594.91;;;9.98;99.87
11808;BME280;5961;42.640;23.380;2023-04-19T05:35:04;93595.59;;;9.95;99.90
11808;BME280;5961;42.640;23.380;2023-04-19T05:37:30;93617.97;;;10.10;99.71
11808;BME280;5961;42.640;23.380;2023-04-19T05:39:58;93610.34;;;10.08;99.65
11808;BME280;5961;42.640;23.380;2023-04-19T05:42:25;93612.91;;;10.05;99.65
11808;BME280;5961;42.640;23.380;2023-04-19T05:44:52;93600.22;;;9.98;99.69
11808;BME280;5961;42.640;23.380;2023-04-19T05:47:18;93610.94;;;10.02;99.48
11808;BME280;5961;42.640;23.380;2023-04-19T05:49:45;93609.22;;;9.93;99.83
11808;BME280;5961;42.640;23.380;2023-04-19T05:52:12;93623.97;;;10.07;99.90
11808;BME280;5961;42.640;23.380;2023-04-19T05:54:39;93623.88;;;10.03;99.84
11808;BME280;5961;42.640;23.380;2023-04-19T05:57:07;93619.41;;;10.07;99.61
11808;BME280;5961;42.640;23.380;2023-04-19T05:59:33;93610.34;;;10.08;99.96
11808;BME280;5961;42.640;23.380;2023-04-19T06:02:00;93624.06;;;10.10;99.62
11808;BME280;5961;42.640;23.380;2023-04-19T06:04:27;93619.41;;;10.07;99.93
11808;BME280;5961;42.640;23.380;2023-04-19T06:06:53;93616.44;;;10.09;100.00
11808;BME280;5961;42.640;23.380;2023-04-19T06:09:20;93615.00;;;10.11;100.00
11808;BME280;5961;42.640;23.380;2023-04-19T06:11:47;93627.16;;;10.12;99.67
11808;BME280;5961;42.640;23.380;2023-04-19T06:14:18;93625.94;;;10.10;99.53
11808;BME280;5961;42.640;23.380;2023-04-19T06:16:47;93611.03;;;10.05;99.89
11808;BME280;5961;42.640;23.380;2023-04-19T06:19:17;93594.31;;;9.77;99.58
11808;BME280;5961;42.640;23.380;2023-04-19T06:21:44;93625.75;;;10.15;100.00
11808;BME280;5961;42.640;23.380;2023-04-19T06:24:10;93615.25;;;10.06;99.54
11808;BME280;5961;42.640;23.380;2023-04-19T06:26:37;93626.16;;;10.17;100.00
11808;BME280;5961;42.640;23.380;2023-04-19T06:29:04;93627.28;;;10.16;100.00
11808;BME280;5961;42.640;23.380;2023-04-19T06:31:32;93617.63;;;10.23;99.77
11808;BME280;5961;42.640;23.380;2023-04-19T06:33:58;93632.44;;;10.24;99.47
11808;BME280;5961;42.640;23.380;2023-04-19T06:36:26;93632.88;;;10.26;99.27
11808;BME280;5961;42.640;23.380;2023-04-19T06:39:01;93619.34;;;10.31;99.55
11808;BME280;5961;42.640;23.380;2023-04-19T06:41:28;93626.72;;;10.38;99.05
11808;BME280;5961;42.640;23.380;2023-04-19T06:43:58;93627.34;;;10.47;99.23
11808;BME280;5961;42.640;23.380;2023-04-19T06:46:25;93633.53;;;10.51;99.45
11808;BME280;5961;42.640;23.380;2023-04-19T06:48:54;93629.84;;;10.56;97.86
11808;BME280;5961;42.640;23.380;2023-04-19T06:51:20;93645.78;;;10.56;97.73
11808;BME280;5961;42.640;23.380;2023-04-19T06:53:48;93630.72;;;10.60;96.94
11808;BME280;5961;42.640;23.380;2023-04-19T06:56:15;93639.09;;;10.62;97.31
11808;BME280;5961;42.640;23.380;2023-04-19T06:58:42;93630.88;;;10.67;97.22
11808;BME280;5961;42.640;23.380;2023-04-19T07:01:08;93635.09;;;10.68;96.28
11808;BME280;5961;42.640;23.380;2023-04-19T07:03:35;93637.25;;;10.78;96.50
11808;BME280;5961;42.640;23.380;2023-04-19T07:06:04;93644.69;;;10.88;95.19
11808;BME280;5961;42.640;23.380;2023-04-19T07:08:30;93634.22;;;10.95;95.37
11808;BME280;5961;42.640;23.380;2023-04-19T07:10:57;93639.72;;;11.02;94.73
11808;BME280;5961;42.640;23.380;2023-04-19T07:13:24;93639.81;;;11.06;93.23
11808;BME280;5961;42.640;23.380;2023-04-19T07:15:50;93635.44;;;11.13;93.40
11808;BME280;5961;42.640;23.380;2023-04-19T07:18:17;93641.25;;;11.19;92.74
11808;BME280;5961;42.640;23.380;2023-04-19T07:20:44;93647.06;;;11.24;92.19
11808;BME280;5961;42.640;23.380;2023-04-19T07:23:14;93648.31;;;11.27;91.55
11808;BME280;5961;42.640;23.380;2023-04-19T07:25:41;93650.28;;;11.30;91.33
11808;BME280;5961;42.640;23.380;2023-04-19T07:28:08;93659.00;;;11.30;91.73
11808;BME280;5961;42.640;23.380;2023-04-19T07:30:34;93646.28;;;11.39;91.72
11808;BME280;5961;42.640;23.380;2023-04-19T07:33:02;93661.31;;;11.47;91.45
11808;BME280;5961;42.640;23.380;2023-04-19T07:35:30;93644.06;;;11.41;91.42
11808;BME280;5961;42.640;23.380;2023-04-19T07:37:56;93625.00;;;11.39;90.87
11808;BME280;5961;42.640;23.380;2023-04-19T07:40:25;93654.16;;;11.51;90.27
11808;BME280;5961;42.640;23.380;2023-04-19T07:42:54;93647.47;;;11.57;90.40
11808;BME280;5961;42.640;23.380;2023-04-19T07:45:21;93644.47;;;11.59;89.72
11808;BME280;5961;42.640;23.380;2023-04-19T07:47:47;93642.72;;;11.67;89.98
11808;BME280;5961;42.640;23.380;2023-04-19T07:50:14;93651.25;;;11.72;89.24
11808;BME280;5961;42.640;23.380;2023-04-19T07:52:41;93652.25;;;11.68;88.75
11808;BME280;5961;42.640;23.380;2023-04-19T07:55:08;93660.84;;;11.77;88.46
11808;BME280;5961;42.640;23.380;2023-04-19T07:57:36;93657.75;;;11.75;88.84
11808;BME280;5961;42.640;23.380;2023-04-19T08:00:03;93654.31;;;11.74;88.96
11808;BME280;5961;42.640;23.380;2023-04-19T08:02:30;93621.50;;;11.35;88.64
11808;BME280;5961;42.640;23.380;2023-04-19T08:04:57;93648.63;;;11.76;89.22
11808;BME280;5961;42.640;23.380;2023-04-19T08:07:23;93652.53;;;11.78;89.07
11808;BME280;5961;42.640;23.380;2023-04-19T08:09:50;93652.16;;;11.80;88.74
11808;BME280;5961;42.640;23.380;2023-04-19T08:12:17;93651.47;;;11.83;89.38
11808;BME280;5961;42.640;23.380;2023-04-19T08:14:45;93655.69;;;11.84;89.22
11808;BME280;5961;42.640;23.380;2023-04-19T08:17:13;93657.97;;;11.85;89.28
11808;BME280;5961;42.640;23.380;2023-04-19T08:19:40;93654.13;;;11.83;89.49
11808;BME280;5961;42.640;23.380;2023-04-19T08:22:07;93637.38;;;11.82;89.62
11808;BME280;5961;42.640;23.380;2023-04-19T08:24:34;93657.72;;;11.90;88.71
11808;BME280;5961;42.640;23.380;2023-04-19T08:27:01;93648.97;;;11.90;88.82
11808;BME280;5961;42.640;23.380;2023-04-19T08:29:28;93649.56;;;11.83;88.77
11808;BME280;5961;42.640;23.380;2023-04-19T08:31:56;93642.78;;;11.86;88.45
11808;BME280;5961;42.640;23.380;2023-04-19T08:34:22;93645.44;;;11.86;88.54
11808;BME280;5961;42.640;23.380;2023-04-19T08:36:49;93638.72;;;11.92;88.52
11808;BME280;5961;42.640;23.380;2023-04-19T08:39:16;93639.00;;;11.87;88.27
11808;BME280;5961;42.640;23.380;2023-04-19T08:41:43;93640.69;;;11.95;89.04
11808;BME280;5961;42.640;23.380;2023-04-19T08:44:11;93635.44;;;11.98;89.44
11808;BME280;5961;42.640;23.380;2023-04-19T08:46:39;93643.06;;;12.00;88.92
11808;BME280;5961;42.640;23.380;2023-04-19T08:49:08;93648.13;;;12.05;88.77
11808;BME280;5961;42.640;23.380;2023-04-19T08:51:35;93635.63;;;12.09;88.26
11808;BME280;5961;42.640;23.380;2023-04-19T08:54:04;93630.03;;;12.14;87.19
11808;BME280;5961;42.640;23.380;2023-04-19T08:56:32;93638.75;;;12.11;86.88
11808;BME280;5961;42.640;23.380;2023-04-19T08:58:58;93632.41;;;12.19;86.57
11808;BME280;5961;42.640;23.380;2023-04-19T09:01:25;93632.41;;;12.19;86.28
11808;BME280;5961;42.640;23.380;2023-04-19T09:03:52;93642.09;;;12.27;86.38
11808;BME280;5961;42.640;23.380;2023-04-19T09:06:20;93641.38;;;12.30;85.92
11808;BME280;5961;42.640;23.380;2023-04-19T09:08:46;93616.34;;;12.16;84.41
11808;BME280;5961;42.640;23.380;2023-04-19T09:11:13;93638.56;;;12.42;84.64
11808;BME280;5961;42.640;23.380;2023-04-19T09:13:40;93626.16;;;12.31;84.74
11808;BME280;5961;42.640;23.380;2023-04-19T09:16:22;93638.44;;;12.35;85.26
11808;BME280;5961;42.640;23.380;2023-04-19T09:18:52;93624.28;;;12.31;85.84
11808;BME280;5961;42.640;23.380;2023-04-19T09:21:27;93618.66;;;12.36;85.25
11808;BME280;5961;42.640;23.380;2023-04-19T09:23:54;93610.41;;;12.22;85.62
11808;BME280;5961;42.640;23.380;2023-04-19T09:26:21;93630.94;;;12.41;84.88
11808;BME280;5961;42.640;23.380;2023-04-19T09:28:54;93594.81;;;12.24;84.84
11808;BME280;5961;42.640;23.380;2023-04-19T09:31:22;93627.25;;;12.49;84.52
11808;BME280;5961;42.640;23.380;2023-04-19T09:33:48;93635.75;;;12.54;83.52
11808;BME280;5961;42.640;23.380;2023-04-19T09:36:27;93626.31;;;12.60;82.78
11808;BME280;5961;42.640;23.380;2023-04-19T09:38:54;93642.28;;;12.57;82.33
11808;BME280;5961;42.640;23.380;2023-04-19T09:41:21;93622.25;;;12.66;80.83
11808;BME280;5961;42.640;23.380;2023-04-19T09:43:47;93628.50;;;12.74;80.92
11808;BME280;5961;42.640;23.380;2023-04-19T09:46:30;93613.97;;;12.72;81.51
11808;BME280;5961;42.640;23.380;2023-04-19T09:49:17;93609.41;;;12.72;81.06
11808;BME280;5961;42.640;23.380;2023-04-19T09:51:47;93613.97;;;12.72;80.95
11808;BME280;5961;42.640;23.380;2023-04-19T09:54:16;93610.22;;;12.76;81.84
11808;BME280;5961;42.640;23.380;2023-04-19T09:56:43;93615.69;;;12.83;81.21
11808;BME280;5961;42.640;23.380;2023-04-19T09:59:10;93608.81;;;12.82;80.65
11808;BME280;5961;42.640;23.380;2023-04-19T10:01:38;93605.19;;;12.94;80.08
11808;BME280;5961;42.640;23.380;2023-04-19T10:04:06;93624.38;;;13.03;80.64
11808;BME280;5961;42.640;23.380;2023-04-19T10:06:34;93605.31;;;13.01;78.65
11808;BME280;5961;42.640;23.380;2023-04-19T10:09:03;93611.19;;;13.10;78.05
11808;BME280;5961;42.640;23.380;2023-04-19T10:11:31;93573.09;;;12.87;77.89
11808;BME280;5961;42.640;23.380;2023-04-19T10:14:04;93594.09;;;13.14;77.90
11808;BME280;5961;42.640;23.380;2023-04-19T10:16:31;93594.22;;;13.22;78.16
11808;BME280;5961;42.640;23.380;2023-04-19T10:18:58;93595.41;;;13.24;77.37
11808;BME280;5961;42.640;23.380;2023-04-19T10:21:27;93601.56;;;13.28;77.15
11808;BME280;5961;42.640;23.380;2023-04-19T10:23:54;93551.97;;;13.01;77.28
11808;BME280;5961;42.640;23.380;2023-04-19T10:26:23;93591.81;;;13.39;77.81
11808;BME280;5961;42.640;23.380;2023-04-19T10:28:50;93595.63;;;13.38;75.86
11808;BME280;5961;42.640;23.380;2023-04-19T10:31:19;93602.09;;;13.37;74.93
11808;BME280;5961;42.640;23.380;2023-04-19T10:33:48;93586.91;;;13.41;74.09
11808;BME280;5961;42.640;23.380;2023-04-19T10:36:15;93588.75;;;13.37;75.25
11808;BME280;5961;42.640;23.380;2023-04-19T10:38:43;93588.38;;;13.39;76.43
11808;BME280;5961;42.640;23.380;2023-04-19T10:41:12;93582.38;;;13.45;77.24
11808;BME280;5961;42.640;23.380;2023-04-19T10:43:43;93566.34;;;13.45;76.53
11808;BME280;5961;42.640;23.380;2023-04-19T10:46:14;93584.31;;;13.48;76.82
11808;BME280;5961;42.640;23.380;2023-04-19T10:48:52;93571.75;;;13.49;74.53
11808;BME280;5961;42.640;23.380;2023-04-19T10:51:20;93558.78;;;13.51;75.32
11808;BME280;5961;42.640;23.380;2023-04-19T10:53:55;93545.09;;;13.52;74.31
11808;BME280;5961;42.640;23.380;2023-04-19T10:56:58;93576.19;;;13.67;73.78
11808;BME280;5961;42.640;23.380;2023-04-19T10:59:28;93561.06;;;13.79;72.20
11808;BME280;5961;42.640;23.380;2023-04-19T11:01:56;93562.38;;;13.92;72.69
11808;BME280;5961;42.640;23.380;2023-04-19T11:07:26;93565.28;;;14.13;69.01
11808;BME280;5961;42.640;23.380;2023-04-19T11:09:53;93567.66;;;14.21;68.66
11808;BME280;5961;42.640;23.380;2023-04-19T11:12:20;93567.38;;;14.30;67.72
11808;BME280;5961;42.640;23.380;2023-04-19T11:14:50;93562.22;;;14.44;68.74
11808;BME280;5961;42.640;23.380;2023-04-19T11:17:19;93570.72;;;14.57;68.49
11808;BME280;5961;42.640;23.380;2023-04-19T11:19:52;93552.47;;;14.62;67.54
11808;BME280;5961;42.640;23.380;2023-04-19T11:22:23;93567.13;;;14.79;67.32
11808;BME280;5961;42.640;23.380;2023-04-19T11:24:50;93554.19;;;14.88;65.00
11808;BME280;5961;42.640;23.380;2023-04-19T11:27:17;93568.41;;;14.96;64.03
11808;BME280;5961;42.640;23.380;2023-04-19T11:29:44;93562.72;;;15.01;62.75
11808;BME280;5961;42.640;23.380;2023-04-19T11:32:12;93565.06;;;15.09;63.29
11808;BME280;5961;42.640;23.380;2023-04-19T11:34:39;93522.13;;;14.92;62.81
11808;BME280;5961;42.640;23.380;2023-04-19T11:37:07;93570.13;;;15.21;62.50
11808;BME280;5961;42.640;23.380;2023-04-19T11:39:44;93573.19;;;15.20;61.66
11808;BME280;5961;42.640;23.380;2023-04-19T11:42:16;93544.19;;;15.29;62.67
11808;BME280;5961;42.640;23.380;2023-04-19T11:44:48;93577.50;;;15.35;61.77
11808;BME280;5961;42.640;23.380;2023-04-19T11:47:16;93548.47;;;15.41;63.56
11808;BME280;5961;42.640;23.380;2023-04-19T11:49:43;93553.94;;;15.58;61.11
11808;BME280;5961;42.640;23.380;2023-04-19T11:52:09;93559.38;;;15.72;60.59
11808;BME280;5961;42.640;23.380;2023-04-19T11:54:36;93553.28;;;15.79;60.14
11808;BME280;5961;42.640;23.380;2023-04-19T11:57:05;93546.41;;;15.81;60.79
11808;BME280;5961;42.640;23.380;2023-04-19T11:59:33;93536.47;;;15.85;58.49
11808;BME280;5961;42.640;23.380;2023-04-19T12:02:04;93514.59;;;15.73;56.77
11808;BME280;5961;42.640;23.380;2023-04-19T12:04:32;93529.69;;;16.20;55.55
11808;BME280;5961;42.640;23.380;2023-04-19T12:07:00;93535.88;;;16.31;54.39
11808;BME280;5961;42.640;23.380;2023-04-19T12:09:27;93548.16;;;16.53;53.46
11808;BME280;5961;42.640;23.380;2023-04-19T12:11:54;93492.16;;;16.09;54.54
11808;BME280;5961;42.640;23.380;2023-04-19T12:14:22;93482.59;;;16.26;53.90
11808;BME280;5961;42.640;23.380;2023-04-19T12:17:10;93517.56;;;16.61;54.02
11808;BME280;5961;42.640;23.380;2023-04-19T12:19:44;93515.25;;;16.88;53.88
11808;BME280;5961;42.640;23.380;2023-04-19T12:22:13;93524.06;;;17.02;52.27
11808;BME280;5961;42.640;23.380;2023-04-19T12:24:40;93525.22;;;17.09;50.27
11808;BME280;5961;42.640;23.380;2023-04-19T12:27:07;93521.03;;;17.04;48.62
11808;BME280;5961;42.640;23.380;2023-04-19T12:29:34;93515.22;;;17.23;53.42
11808;BME280;5961;42.640;23.380;2023-04-19T12:32:01;93479.56;;;17.23;57.29
11808;BME280;5961;42.640;23.380;2023-04-19T12:34:28;93507.91;;;17.52;58.50
11808;BME280;5961;42.640;23.380;2023-04-19T12:36:57;93507.50;;;17.50;59.63
11808;BME280;5961;42.640;23.380;2023-04-19T12:39:23;93499.75;;;17.80;58.99
11808;BME280;5961;42.640;23.380;2023-04-19T12:41:50;93502.00;;;17.92;59.47
11808;BME280;5961;42.640;23.380;2023-04-19T12:44:17;93497.06;;;17.80;57.78
11808;BME280;5961;42.640;23.380;2023-04-19T12:46:44;93494.09;;;17.61;57.39
11808;BME280;5961;42.640;23.380;2023-04-19T12:49:10;93484.41;;;17.77;57.19
11808;BME280;5961;42.640;23.380;2023-04-19T12:51:37;93508.94;;;17.86;56.35
11808;BME280;5961;42.640;23.380;2023-04-19T12:54:05;93499.03;;;17.73;56.48
11808;BME280;5961;42.640;23.380;2023-04-19T12:56:33;93478.00;;;17.39;56.72
11808;BME280;5961;42.640;23.380;2023-04-19T12:58:59;93504.06;;;17.46;56.30
11808;BME280;5961;42.640;23.380;2023-04-19T13:01:26;93510.22;;;17.43;56.54
11808;BME280;5961;42.640;23.380;2023-04-19T13:03:53;93498.34;;;17.33;56.32
11808;BME280;5961;42.640;23.380;2023-04-19T13:06:19;93509.88;;;17.13;57.04